Latest Weather Observations for Alva Beach

IDQ60801

Issued at 4:32 pm EST Monday 3 August 2015 (issued every 30 minutes, with the page automatically refreshed every 10 minutes)

About weather observations | Map of weather stations | Latest weather observations for QLD | Other Formats
Station Details ID: 033295 Name: ALVA BEACH Lat: -19.46 Lon: 147.48 Height: 7.5 m
Data from the previous 72 hours. | See also: Recent months at Alva Beach
Date/Time
EST
Temp
°C
App
Temp
°C
Dew
Point
Rel
Hum
%
Delta-T
°C
Wind Press
QNH
hPa
Press
MSL
hPa
Rain
since 9 am
mm
Dir
 
Spd
km/h
Gust
km/h
Spd
kts
Gust
kts
03/04:30pm 22.6 22.0 16.6 69 3.7 NNE 15 17 8 9 1016.6 1016.6 0.0
03/04:00pm 23.0 22.5 16.8 68 3.8 NE 15 19 8 10 1016.5 1016.5 0.0
03/03:30pm 23.0 22.8 16.8 68 3.8 NE 13 17 7 9 1016.7 1016.7 0.0
03/03:00pm 23.6 23.5 16.9 66 4.1 NE 13 17 7 9 1016.8 1016.8 0.0
03/02:30pm 23.5 23.5 17.3 68 3.8 ENE 13 15 7 8 1017.1 1017.1 0.0
03/02:00pm 23.3 23.3 17.1 68 3.8 ENE 13 15 7 8 1017.4 1017.4 0.0
03/01:30pm 23.8 24.3 17.5 68 3.9 ENE 11 15 6 8 1017.7 1017.7 0.0
03/01:00pm 23.1 22.9 16.6 67 4.0 ENE 13 17 7 9 1017.9 1017.9 0.0
03/12:30pm 23.1 22.7 17.1 69 3.7 ENE 15 17 8 9 1018.3 1018.3 0.0
03/12:00pm 23.2 22.9 17.4 70 3.6 E 15 19 8 10 1018.8 1018.8 0.0
03/11:30am 22.8 22.6 16.6 68 3.8 E 13 17 7 9 1019.2 1019.2 0.0
03/11:00am 24.0 24.4 17.3 66 4.1 ESE 11 19 6 10 1019.6 1019.6 0.0
03/10:30am 23.0 23.0 17.2 70 3.6 E 13 19 7 10 1020.0 1020.0 0.0
03/10:00am 22.6 21.9 16.4 68 3.8 E 15 20 8 11 1020.2 1020.2 0.0
03/09:30am 23.5 24.1 17.7 70 3.6 ESE 11 19 6 10 1020.4 1020.4 0.0
03/09:00am 22.0 23.1 18.0 78 2.5 ESE 9 13 5 7 1020.1 1020.1 0.0
03/08:30am 19.7 21.5 18.4 92 0.8 SE 6 9 3 5 1020.0 1020.0 0.0
03/08:00am 17.7 18.9 16.9 95 0.5 SSW 6 9 3 5 1019.8 1019.8 0.0
03/07:30am 16.1 16.7 15.3 95 0.5 WSW 6 7 3 4 1019.4 1019.4 0.0
03/07:00am 16.0 16.6 15.4 96 0.3 S 6 7 3 4 1019.0 1019.0 0.0
03/06:30am 15.5 15.7 14.7 95 0.5 S 7 9 4 5 1018.8 1018.8 0.0
03/06:00am 15.4 15.6 14.6 95 0.5 SSW 7 9 4 5 1018.6 1018.6 0.0
03/05:30am 15.7 16.0 14.9 95 0.5 SSW 7 9 4 5 1018.3 1018.3 0.0
03/05:00am 15.8 16.0 14.8 94 0.6 SSW 7 9 4 5 1018.3 1018.3 0.0
03/04:30am 16.3 16.9 15.2 93 0.6 SSW 6 7 3 4 1018.2 1018.2 0.0
03/04:00am 16.9 17.5 15.4 91 0.9 SSW 6 7 3 4 1018.1 1018.1 0.0
03/03:30am 17.8 18.0 14.7 82 1.8 SSW 7 9 4 5 1018.2 1018.2 0.0
03/03:00am 20.7 20.6 16.9 79 2.3 E 13 19 7 10 1018.1 1018.1 0.0
03/02:30am 21.1 21.1 17.3 79 2.3 E 13 17 7 9 1018.3 1018.3 0.0
03/02:00am 21.1 21.1 17.1 78 2.4 E 13 19 7 10 1018.6 1018.6 0.0
03/01:30am 21.2 20.9 17.4 79 2.3 E 15 20 8 11 1018.8 1018.8 0.0
03/01:00am 21.2 21.0 17.6 80 2.2 E 15 20 8 11 1019.0 1019.0 0.0
03/12:30am 21.3 21.1 17.7 80 2.2 E 15 22 8 12 1019.3 1019.3 0.0
03/12:00am 20.9 21.8 17.5 81 2.1 ESE 9 17 5 9 1019.5 1019.5 0.0
 
Date/Time
EST
Temp
°C
App
Temp
°C
Dew
Point
Rel
Hum
%
Delta-T
°C
Wind Press
QNH
hPa
Press
MSL
hPa
Rain
since 9 am
mm
Dir
 
Spd
km/h
Gust
km/h
Spd
kts
Gust
kts
02/11:30pm 21.5 21.7 17.7 79 2.3 E 13 19 7 10 1019.7 1019.7 0.0
02/11:00pm 21.5 22.0 17.5 78 2.5 E 11 17 6 9 1019.7 1019.7 0.0
02/10:30pm 21.6 21.9 17.8 79 2.4 E 13 19 7 10 1019.9 1019.9 0.0
02/10:00pm 21.7 21.2 17.9 79 2.4 E 17 22 9 12 1020.0 1020.0 0.0
02/09:30pm 21.7 21.7 18.1 80 2.2 E 15 20 8 11 1020.0 1020.0 0.0
02/09:00pm 21.6 21.5 17.8 79 2.3 E 15 20 8 11 1019.8 1019.8 0.0
02/08:30pm 21.7 21.7 18.1 80 2.2 E 15 20 8 11 1019.6 1019.6 0.0
02/08:00pm 21.7 21.2 17.7 78 2.5 E 17 20 9 11 1019.4 1019.4 0.0
02/07:30pm 21.6 21.8 17.6 78 2.5 E 13 17 7 9 1019.2 1019.2 0.0
02/07:00pm 21.7 21.5 17.5 77 2.6 ENE 15 19 8 10 1019.0 1019.0 0.0
02/06:30pm 21.8 21.4 17.2 75 2.8 E 15 19 8 10 1018.8 1018.8 0.0
02/06:00pm 22.1 21.9 16.6 71 3.3 E 13 20 7 11 1018.9 1018.9 0.0
02/05:30pm 22.4 21.9 16.9 71 3.4 E 15 24 8 13 1018.8 1018.8 0.0
02/05:00pm 22.7 22.1 16.7 69 3.7 E 15 22 8 12 1018.7 1018.7 0.0
02/04:30pm 22.9 21.3 16.0 65 4.2 E 19 24 10 13 1018.6 1018.6 0.0
02/04:00pm 23.7 22.0 16.2 63 4.6 E 20 28 11 15 1018.6 1018.6 0.0
02/03:30pm 23.6 22.3 15.9 62 4.7 E 17 22 9 12 1018.8 1018.8 0.0
02/03:00pm 23.8 22.5 15.8 61 4.8 E 17 22 9 12 1019.0 1019.0 0.0
02/02:30pm 25.1 24.9 15.7 56 5.7 ESE 11 19 6 10 1018.9 1018.9 0.0
02/02:00pm 24.7 24.2 14.8 54 5.9 ESE 11 19 6 10 1019.1 1019.1 0.0
02/01:30pm 25.8 25.6 15.8 54 6.1 ESE 11 20 6 11 1019.5 1019.5 0.0
02/01:00pm 24.9 23.9 14.7 53 6.1 ESE 13 22 7 12 1019.9 1019.9 0.0
02/12:30pm 25.7 25.1 15.7 54 6.1 ESE 13 24 7 13 1020.6 1020.6 0.0
02/12:00pm 25.0 24.3 15.3 55 5.8 ESE 13 24 7 13 1020.9 1020.9 0.0
02/11:30am 24.7 23.3 15.6 57 5.5 ESE 17 28 9 15 1021.2 1021.2 0.0
02/11:00am 23.7 22.0 15.7 61 4.8 SE 19 28 10 15 1021.5 1021.5 0.0
02/10:30am 22.6 20.4 15.0 62 4.5 SE 20 28 11 15 1021.8 1021.8 0.0
02/10:00am 22.9 21.3 15.0 61 4.7 SE 17 26 9 14 1021.9 1021.9 0.0
02/09:30am 23.1 23.0 14.9 60 4.9 SSE 9 20 5 11 1021.7 1021.7 0.0
02/09:00am 22.1 21.7 15.2 65 4.1 SSE 11 20 6 11 1021.7 1021.7 0.0
02/08:30am 19.9 19.9 15.1 74 2.8 S 9 17 5 9 1021.4 1021.4 0.0
02/08:00am 18.0 18.6 15.8 87 1.3 SSW 7 13 4 7 1021.3 1021.3 0.0
02/07:30am 16.7 16.8 15.4 92 0.8 S 9 15 5 8 1021.0 1021.0 0.0
02/07:00am 16.0 15.8 14.7 92 0.7 SSW 9 13 5 7 1020.6 1020.6 0.0
02/06:30am 15.7 15.7 14.2 91 0.9 SSW 7 11 4 6 1020.3 1020.3 0.0
02/06:00am 16.4 16.3 14.9 91 0.9 S 9 13 5 7 1020.0 1020.0 0.0
02/05:30am 16.6 16.4 14.8 89 1.0 SSW 9 15 5 8 1019.7 1019.7 0.0
02/05:00am 17.4 17.1 14.3 82 1.8 SSW 9 15 5 8 1019.5 1019.5 0.0
02/04:30am 18.1 17.9 14.8 81 1.9 S 9 13 5 7 1019.5 1019.5 0.0
02/04:00am 18.9 19.1 14.8 77 2.4 S 7 13 4 7 1019.6 1019.6 0.0
02/03:30am 20.0 18.5 15.4 75 2.7 SE 17 22 9 12 1019.7 1019.7 0.0
02/03:00am 19.8 18.5 15.9 78 2.3 SE 17 24 9 13 1019.8 1019.8 0.0
02/02:30am 20.0 18.8 16.0 78 2.4 SE 17 26 9 14 1019.8 1019.8 0.0
02/02:00am 20.0 19.7 16.4 80 2.2 ESE 13 26 7 14 1019.9 1019.9 0.0
02/01:30am 20.1 19.8 16.5 80 2.2 ESE 13 20 7 11 1020.1 1020.1 0.0
02/01:00am 20.5 19.5 16.5 78 2.4 ESE 17 24 9 13 1020.2 1020.2 0.0
02/12:30am 20.8 19.0 16.0 74 2.9 ESE 20 30 11 16 1020.3 1020.3 0.0
02/12:00am 20.6 18.3 15.8 74 2.9 ESE 22 32 12 17 1020.4 1020.4 0.0
 
Date/Time
EST
Temp
°C
App
Temp
°C
Dew
Point
Rel
Hum
%
Delta-T
°C
Wind Press
QNH
hPa
Press
MSL
hPa
Rain
since 9 am
mm
Dir
 
Spd
km/h
Gust
km/h
Spd
kts
Gust
kts
01/11:30pm 20.7 18.5 15.9 74 2.9 ESE 22 32 12 17 1020.4 1020.4 0.0
01/11:00pm 21.1 18.6 16.1 73 3.0 ESE 24 32 13 17 1020.4 1020.4 0.0
01/10:30pm 21.1 18.1 15.9 72 3.1 E 26 35 14 19 1020.3 1020.3 0.0
01/10:00pm 21.1 18.7 16.3 74 2.9 ESE 24 33 13 18 1020.3 1020.3 0.0
01/09:30pm 21.3 18.5 16.3 73 3.0 E 26 33 14 18 1020.1 1020.1 0.0
01/09:00pm 21.5 18.8 16.5 73 3.0 E 26 35 14 19 1019.9 1019.9 0.0
01/08:30pm 21.5 19.5 16.5 73 3.0 E 22 33 12 18 1019.7 1019.7 0.0
01/08:00pm 21.6 19.8 15.9 70 3.4 E 20 30 11 16 1019.4 1019.4 0.0
01/07:30pm 21.6 20.0 15.9 70 3.4 E 19 28 10 15 1019.1 1019.1 0.0
01/07:00pm 21.6 19.7 15.7 69 3.5 E 20 28 11 15 1018.6 1018.6 0.0
01/06:30pm 21.7 20.0 15.8 69 3.5 E 19 24 10 13 1018.5 1018.5 0.0
01/06:00pm 21.7 20.1 16.0 70 3.4 E 19 24 10 13 1018.3 1018.3 0.0
01/05:30pm 21.9 20.3 15.0 65 4.1 E 17 24 9 13 1018.3 1018.3 0.0
01/05:00pm 22.4 20.9 15.3 64 4.2 E 17 24 9 13 1018.2 1018.2 0.0
01/04:30pm 23.2 21.9 14.7 58 5.0 ESE 15 24 8 13 1018.2 1018.2 0.0
01/04:00pm 24.2 23.2 14.6 55 5.7 ESE 13 24 7 13 1018.2 1018.2 0.0
01/03:30pm 24.3 22.5 14.4 54 5.9 ESE 17 26 9 14 1018.2 1018.2 0.0
01/03:00pm 24.6 23.2 14.4 53 6.0 ESE 15 26 8 14 1018.5 1018.5 0.0
01/02:30pm 24.8 23.7 14.3 52 6.2 ESE 13 24 7 13 1018.8 1018.8 0.0
01/02:00pm 24.8 23.7 14.3 52 6.2 ESE 13 22 7 12 1019.3 1019.3 0.0
01/01:30pm 23.9 21.9 12.8 49 6.4 ESE 15 24 8 13 1019.9 1019.9 0.0
01/01:00pm 24.3 22.7 13.8 52 6.1 ESE 15 26 8 14 1020.3 1020.3 0.0
01/12:30pm 24.3 21.7 13.2 50 6.4 ESE 19 30 10 16 1020.8 1020.8 0.0
01/12:00pm 23.5 20.9 13.7 54 5.7 SE 20 28 11 15 1021.3 1021.3 0.0
01/11:30am 23.4 20.9 13.6 54 5.7 SE 19 26 10 14 1021.5 1021.5 0.0
01/11:00am 23.5 22.3 13.9 55 5.6 SE 13 22 7 12 1021.8 1021.8 0.0
01/10:30am 23.2 22.2 14.5 58 5.1 SE 13 22 7 12 1022.1 1022.1 0.0
01/10:00am 22.4 21.4 13.5 57 5.1 SE 11 20 6 11 1022.3 1022.3 0.0
01/09:30am 22.6 21.8 13.9 58 5.1 SE 11 19 6 10 1022.2 1022.2 0.0
01/09:00am 21.4 21.1 14.3 64 4.1 S 9 17 5 9 1022.0 1022.0 0.0
01/08:30am 19.6 18.9 14.2 71 3.1 S 11 17 6 9 1021.8 1021.8 0.0
01/08:00am 17.9 17.4 13.8 77 2.3 SSW 9 13 5 7 1021.5 1021.5 0.0
01/07:30am 16.2 15.7 13.7 85 1.4 SSW 9 15 5 8 1021.2 1021.2 0.0
01/07:00am 15.1 14.5 13.5 90 0.9 SSW 9 13 5 7 1021.1 1021.1 0.0
01/06:30am 15.3 14.7 13.5 89 1.0 S 9 13 5 7 1020.8 1020.8 0.0
01/06:00am 15.4 14.4 13.4 88 1.1 S 11 19 6 10 1020.4 1020.4 0.0
01/05:30am 15.6 14.7 13.6 88 1.1 SSW 11 17 6 9 1020.1 1020.1 0.0
01/05:00am 16.1 15.8 14.3 89 1.0 SSW 9 13 5 7 1019.9 1019.9 0.0
01/04:30am 16.3 16.0 13.2 82 1.7 S 7 13 4 7 1019.6 1019.6 0.0
01/04:00am 17.8 17.1 13.1 74 2.6 S 9 19 5 10 1019.5 1019.5 0.0
01/03:30am 19.8 18.8 15.7 77 2.4 SE 15 24 8 13 1019.6 1019.6 0.0
01/03:00am 19.8 18.3 15.4 76 2.6 SE 17 26 9 14 1019.5 1019.5 0.0
01/02:30am 20.0 19.1 15.8 77 2.5 ESE 15 24 8 13 1019.5 1019.5 0.0
01/02:00am 20.6 17.8 15.4 72 3.1 E 24 32 13 17 1019.5 1019.5 0.0
01/01:30am 20.8 17.5 15.1 70 3.4 E 26 35 14 19 1019.7 1019.7 0.0
01/01:00am 21.1 17.1 15.2 69 3.5 E 30 41 16 22 1019.9 1019.9 0.0
01/12:30am 21.1 17.4 15.0 68 3.6 E 28 37 15 20 1020.1 1020.1 0.0
01/12:00am 21.0 17.0 15.1 69 3.5 E 30 41 16 22 1020.1 1020.1 0.0
 
Date/Time
EST
Temp
°C
App
Temp
°C
Dew
Point
Rel
Hum
%
Delta-T
°C
Wind Press
QNH
hPa
Press
MSL
hPa
Rain
since 9 am
mm
Dir
 
Spd
km/h
Gust
km/h
Spd
kts
Gust
kts
31/11:30pm 21.0 16.9 14.9 68 3.6 E 30 37 16 20 1020.2 1020.2 0.0
31/11:00pm 21.0 17.5 14.6 67 3.7 E 26 37 14 20 1020.4 1020.4 0.0
31/10:30pm 21.1 17.3 14.7 67 3.8 E 28 39 15 21 1020.4 1020.4 0.0
31/10:00pm 21.2 17.5 15.1 68 3.6 E 28 39 15 21 1020.2 1020.2 0.0
31/09:30pm 21.3 18.4 16.0 72 3.2 E 26 37 14 20 1020.1 1020.1 0.0
31/09:00pm 21.3 17.8 15.6 70 3.4 E 28 37 15 20 1020.1 1020.1 0.0
31/08:30pm 21.3 17.7 15.2 68 3.6 E 28 43 15 23 1019.6 1019.6 0.0
31/08:00pm 21.4 17.7 15.9 71 3.3 E 30 41 16 22 1019.2 1019.2 0.0
31/07:30pm 21.5 17.3 15.8 70 3.4 E 32 43 17 23 1018.9 1018.9 0.0
31/07:00pm 21.7 17.4 15.3 67 3.8 E 32 43 17 23 1018.5 1018.5 0.0
31/06:30pm 21.6 18.0 15.2 67 3.8 E 28 37 15 20 1018.3 1018.3 0.0
31/06:00pm 21.7 19.0 15.5 68 3.7 E 24 33 13 18 1018.2 1018.2 0.0
31/05:30pm 21.9 18.8 15.5 67 3.8 E 26 35 14 19 1018.0 1018.0 0.0
31/05:00pm 22.0 19.3 15.6 67 3.8 E 24 32 13 17 1017.9 1017.9 0.0

Other Formats:

Comma delimited format used in spreadsheet applications
http://www.bom.gov.au/fwo/IDQ60801/IDQ60801.95296.axf

JavaScript Object Notation format (JSON) in row-major order
http://www.bom.gov.au/fwo/IDQ60801/IDQ60801.95296.json